Latest Coastal Weather Observations for Lombadina

IDW60701

Issued at 4:02 am WST Saturday 7 March 2015 (issued every 10 minutes, with the page automatically refreshed every 10 minutes)

About coastal observations | Map of coastal stations | Coastal observations for WA | Marine services | Other Formats
Station Details ID: 503016 Name: LOMBADINA AIRSTRIP Lat: -16.52 Lon: 122.92 Height: 42.0 m
Data from the previous 72 hours. | See also: Recent months for locations in Western Australia
Date/Time
WST
Temp

°C
Wind Pressure Rain
since 9am
mm
Weather Cloud Vis
km
Sea
Height
m
Swell
Dir
 
Speed
knots
Gust
knots
hPa Trend Height
m
Period
s
Dir
07/04:00am 24.3 SSE 1 3 1007.2 - 0.0 - - 10 - - - -
07/03:30am 24.2 S 1 2 1006.8 - 0.0 - - 10 - - - -
07/03:00am 23.9 SSE 1 3 1006.7 - 0.0 - - 10 - - - -
07/02:30am 24.0 S 2 4 1006.6 - 0.0 - - 10 - - - -
07/02:00am 24.1 SSW 2 4 1006.6 - 0.0 - - 10 - - - -
07/01:30am 24.2 CALM 0 0 1006.8 - 0.0 - - 10 - - - -
07/01:00am 24.6 CALM 0 1 1007.1 - 0.0 - - 10 - - - -
07/12:30am 25.0 CALM 0 0 1007.3 - 0.0 - - 10 - - - -
07/12:00am 26.1 ESE 2 4 1007.3 - 0.0 - - 10 - - - -
 
Date/Time
WST
Temp

°C
Wind Pressure Rain
since 9am
mm
Weather Cloud Vis
km
Sea
Height
m
Swell
Dir
 
Speed
knots
Gust
knots
hPa Trend Height
m
Period
s
Dir
06/11:30pm 26.2 SE 3 6 1007.5 - 0.0 - - 10 - - - -
06/11:00pm 26.4 SE 3 6 1007.8 - 0.0 - - 10 - - - -
06/10:30pm 26.7 SE 5 10 1008.3 - 0.0 - - 10 - - - -
06/10:00pm 26.4 ESE 5 8 1008.4 - 0.0 - - 10 - - - -
06/09:30pm 25.4 SE 2 6 1008.3 - 0.0 - - 10 - - - -
06/09:00pm 25.5 SE 3 5 1008.4 - 0.0 - - 10 - - - -
06/08:30pm 25.7 ESE 1 3 1007.9 - 0.0 - - 10 - - - -
06/08:00pm 25.9 CALM 0 3 1007.6 - 0.0 - - 10 - - - -
06/07:30pm 26.5 SE 5 8 1007.4 - 0.0 - - 10 - - - -
06/07:00pm 26.9 SE 6 9 1007.4 - 0.0 - - 10 - - - -
06/06:30pm 26.8 SE 7 13 1007.4 - 0.0 - - 10 - - - -
06/06:00pm 27.1 SE 8 14 1007.3 - 0.0 - - 10 - - - -
06/05:30pm 27.8 SE 9 16 1006.9 - 0.0 - - 10 - - - -
06/05:00pm 29.1 SE 10 20 1006.7 - 0.0 - - 10 - - - -
06/04:30pm 29.9 SE 7 12 1006.5 - 0.0 - - 10 - - - -
06/04:00pm 30.0 SE 7 12 1006.7 - 0.0 - - 10 - - - -
06/03:30pm 30.0 SE 9 16 1006.9 - 0.0 - - 10 - - - -
06/03:00pm 29.8 SE 9 16 1007.2 - 0.0 - - 10 - - - -
06/02:30pm 29.2 ESE 8 15 1007.4 - 0.0 - - 10 - - - -
06/02:00pm 29.5 ESE 9 15 1007.6 - 0.0 - - 10 - - - -
06/01:30pm 30.1 ESE 10 17 1007.9 - 0.0 - - 10 - - - -
06/01:00pm 29.0 SE 10 17 1008.4 - 0.0 - Partly cloudy 10 - - - -
06/12:30pm 29.0 SE 9 15 1008.5 - 0.0 - - 10 - - - -
06/12:00pm 28.5 SE 9 15 1009.2 - 0.0 - - 10 - - - -
06/11:30am 28.5 SE 10 16 1010.0 - 0.0 - Partly cloudy 10 - - - -
06/11:00am 28.5 SE 9 18 1010.3 - 0.0 - Partly cloudy 10 - - - -
06/10:30am 29.3 SE 10 20 1010.5 - 0.0 - Partly cloudy 10 - - - -
06/10:00am 28.2 SSE 9 16 1010.2 - 0.0 - Partly cloudy 10 - - - -
06/09:30am 27.7 SE 9 16 1010.4 - 0.0 - Partly cloudy 10 - - - -
06/09:00am 27.0 SE 7 13 1010.5 - 0.0 - Partly cloudy 10 - - - -
06/08:30am 26.8 SE 9 15 1010.5 - 0.0 - Partly cloudy 10 - - - -
06/08:00am 27.3 SE 6 12 1010.0 - 0.0 - - 10 - - - -
06/07:30am 27.3 SE 7 12 1009.8 - 0.0 - - 10 - - - -
06/07:00am 27.2 SE 6 11 1009.3 - 0.0 - Partly cloudy 10 - - - -
06/06:30am 26.6 SE 4 7 1009.2 - 0.0 - Partly cloudy 10 - - - -
06/06:00am 26.2 SE 3 5 1008.7 - 0.0 - Partly cloudy 10 - - - -
06/05:30am 25.8 SSE 2 4 1008.0 - 0.0 - - 10 - - - -
06/05:00am 26.4 CALM 0 2 1008.0 - 0.0 - Partly cloudy 10 - - - -
06/04:30am 26.7 SSW 2 5 1008.3 - 0.0 - Cloudy 10 - - - -
06/04:00am 26.3 S 2 4 1008.4 - 0.0 - Partly cloudy 10 - - - -
06/03:30am 26.2 SSW 1 4 1008.4 - 0.0 - - 10 - - - -
06/03:00am 25.7 SSW 1 3 1008.2 - 0.0 - - 10 - - - -
06/02:30am 26.3 CALM 0 2 1008.3 - 0.0 - Partly cloudy 10 - - - -
06/02:00am 26.5 CALM 0 2 1008.7 - 0.0 - Partly cloudy 10 - - - -
06/01:30am 25.8 WSW 1 4 1008.5 - 0.0 - - 10 - - - -
06/01:00am 26.7 WNW 1 3 1008.2 - 0.0 - Partly cloudy 10 - - - -
06/12:30am 27.3 W 2 4 1008.4 - 0.0 - Partly cloudy 10 - - - -
06/12:00am 27.7 WNW 1 4 1008.9 - 0.0 - Mostly clear 10 - - - -
 
Date/Time
WST
Temp

°C
Wind Pressure Rain
since 9am
mm
Weather Cloud Vis
km
Sea
Height
m
Swell
Dir
 
Speed
knots
Gust
knots
hPa Trend Height
m
Period
s
Dir
05/11:30pm 27.4 WNW 1 3 1009.5 - 0.0 - - 10 - - - -
05/11:00pm 27.3 W 1 3 1009.9 - 0.0 - - 10 - - - -
05/10:30pm 26.9 WSW 1 3 1010.0 - 0.0 - - 10 - - - -
05/10:00pm 27.7 W 1 3 1009.8 - 0.0 - - 10 - - - -
05/09:30pm 27.8 CALM 0 1 1009.7 - 0.0 - - 10 - - - -
05/09:00pm 28.2 WNW 1 3 1009.8 - 0.0 - - 10 - - - -
05/08:30pm 28.2 WNW 1 4 1009.7 - 0.0 - - 10 - - - -
05/08:00pm 28.1 W 1 3 1009.5 - 0.0 - - 10 - - - -
05/07:30pm 28.8 NW 1 3 1009.3 - 0.0 - - 10 - - - -
05/07:00pm 28.8 NW 1 3 1008.7 - 0.0 - - 10 - - - -
05/06:30pm 29.0 CALM 0 3 1008.7 - 0.0 - - 10 - - - -
05/06:00pm 29.4 WNW 2 5 1007.8 - 0.0 - - 10 - - - -
05/05:30pm 29.9 NW 4 7 1007.0 - 0.0 - - 10 - - - -
05/05:00pm 30.6 NW 4 8 1006.8 - 0.0 - - 10 - - - -
05/04:30pm 31.1 NW 5 8 1006.6 - 0.0 - - 10 - - - -
05/04:00pm 30.9 NNW 5 8 1006.5 - 0.0 - - 10 - - - -
05/03:30pm 30.9 NW 7 10 1006.8 - 0.0 - - 10 - - - -
05/03:00pm 31.0 NW 7 11 1006.8 - 0.0 - Partly cloudy 10 - - - -
05/02:30pm 31.3 NNW 6 10 1006.8 - 0.0 - Cloudy 10 - - - -
05/02:00pm 31.0 NW 5 8 1006.8 - 0.0 - Partly cloudy 10 - - - -
05/01:30pm 32.0 NE 3 8 1007.3 - 0.0 - Partly cloudy 10 - - - -
05/01:00pm 32.7 ENE 5 10 1007.7 - 0.0 - Partly cloudy 10 - - - -
05/12:30pm 31.9 ESE 7 10 1008.4 - 0.0 - Partly cloudy 10 - - - -
05/12:00pm 32.0 E 5 9 1008.8 - 0.0 - - 10 - - - -
05/11:30am 32.0 ESE 4 9 1009.0 - 0.0 - Partly cloudy 10 - - - -
05/11:00am 31.7 ENE 5 11 1009.4 - 0.0 - Partly cloudy 10 - - - -
05/10:30am 31.0 E 7 11 1009.7 - 0.0 - Partly cloudy 10 - - - -
05/10:00am 30.6 E 5 9 1009.8 - 0.0 - Partly cloudy 10 - - - -
05/09:30am 30.7 E 4 7 1009.6 - 0.0 - Partly cloudy 10 - - - -
05/09:00am 30.5 ENE 4 9 1009.5 - 1.0 - Mostly clear 10 - - - -
05/08:30am 30.7 ENE 4 8 1009.4 - 1.0 - Partly cloudy 10 - - - -
05/08:00am 29.9 NE 3 6 1009.3 - 1.0 - - 10 - - - -
05/07:30am 29.2 NE 2 4 1009.2 - 1.0 - - 10 - - - -
05/07:00am 28.9 ENE 3 5 1009.0 - 1.0 - - 10 - - - -
05/06:30am 27.5 ENE 3 6 1008.7 - 1.0 - - 10 - - - -
05/06:00am 26.5 ENE 4 5 1008.5 - 1.0 - - 10 - - - -
05/05:30am 24.9 E 2 4 1008.0 - 1.0 - - 10 - - - -
05/05:00am 24.4 E 2 3 1007.5 - 1.0 - - 10 - - - -
05/04:30am 24.6 ENE 1 3 1007.1 - 1.0 - - 10 - - - -
05/04:00am 24.9 ENE 1 2 1007.0 - 1.0 - - 10 - - - -
05/03:30am 24.9 E 1 3 1007.1 - 1.0 - - 10 - - - -
05/03:00am 25.2 ENE 1 2 1007.1 - 1.0 - - 10 - - - -
05/02:30am 25.3 NE 2 3 1007.3 - 1.0 - - 10 - - - -
05/02:00am 25.1 E 1 2 1007.7 - 1.0 - - 10 - - - -
05/01:30am 25.4 ENE 1 2 1007.5 - 1.0 - - 10 - - - -
05/01:00am 25.2 CALM 0 0 1007.6 - 1.0 - - 10 - - - -
05/12:30am 25.5 CALM 0 0 1007.9 - 1.0 - - 10 - - - -
05/12:00am 25.7 CALM 0 0 1008.4 - 1.0 - - 10 - - - -
 
Date/Time
WST
Temp

°C
Wind Pressure Rain
since 9am
mm
Weather Cloud Vis
km
Sea
Height
m
Swell
Dir
 
Speed
knots
Gust
knots
hPa Trend Height
m
Period
s
Dir
04/11:30pm 25.7 CALM 0 0 1008.7 - 1.0 - - 10 - - - -
04/11:00pm 25.6 CALM 0 0 1009.0 - 1.0 - - 10 - - - -
04/10:30pm 25.8 CALM 0 2 1009.2 - 1.0 - - 10 - - - -
04/10:00pm 26.9 ENE 1 4 1009.3 - 1.0 - Partly cloudy 10 - - - -
04/09:30pm 27.1 ENE 3 4 1009.6 - 1.0 - Partly cloudy 10 - - - -
04/09:00pm 26.1 CALM 0 1 1009.0 - 1.0 - - 10 - - - -
04/08:30pm 26.4 CALM 0 1 1008.6 - 1.0 - Partly cloudy 10 - - - -
04/08:00pm 26.9 N 1 3 1008.2 - 1.0 - - 10 - - - -
04/07:30pm 26.3 CALM 0 0 1007.7 - 1.0 - - 10 - - - -
04/07:00pm 26.5 CALM 0 1 1007.3 - 1.0 - - 10 - - - -
04/06:30pm 27.3 ENE 2 3 1007.6 - 1.0 - - 10 - - - -
04/06:00pm 27.9 CALM 0 0 1006.6 - 1.0 - - 10 - - - -
04/05:30pm 28.2 NE 1 3 1006.7 - 1.0 - - 10 - - - -
04/05:00pm 28.9 CALM 0 2 1006.6 - 1.0 - Partly cloudy 10 - - - -
04/04:30pm 29.3 NNE 3 5 1006.4 - 1.0 - - 10 - - - -
04/04:00pm 29.6 NNE 3 5 1006.2 - 1.0 - Partly cloudy 10 - - - -
04/03:30pm 30.4 NNE 4 8 1005.9 - 1.0 - Partly cloudy 10 - - - -
04/03:00pm 30.2 E 4 6 1005.6 - 1.0 - Cloudy 10 - - - -
04/02:30pm 29.7 ENE 3 6 1005.7 - 1.0 - Partly cloudy 10 - - - -
04/02:00pm 28.8 E 4 8 1006.1 - 1.0 - - 10 - - - -
04/01:30pm 28.2 ESE 4 6 1006.5 - 1.0 - Partly cloudy 10 - - - -
04/01:00pm 28.9 E 4 9 1006.6 - 0.8 - Partly cloudy 10 - - - -
04/12:40pm 28.6 ENE 4 7 1006.9 - 0.8 - Partly cloudy 10 - - - -
04/12:30pm 28.2 E 3 5 1007.1 - 0.8 - Partly cloudy 10 - - - -
04/12:00pm 27.6 SE 3 7 1007.6 - 0.8 - Cloudy 10 - - - -
04/11:30am 26.3 CALM 0 0 1007.9 - 0.8 - Partly cloudy 10 - - - -
04/11:18am 26.0 NW 2 4 1008.2 - 0.8 - Partly cloudy 10 - - - -
04/11:00am 25.9 E 1 4 1008.8 - 0.8 - Partly cloudy 10 - - - -
04/10:30am 25.2 SE 1 4 1008.8 - 0.8 - Partly cloudy 10 - - - -
04/10:00am 24.6 S 1 4 1008.7 - 0.8 - Partly cloudy 10 - - - -
04/09:30am 24.6 SSW 1 4 1009.0 - 0.8 - Partly cloudy 10 - - - -
04/09:00am 24.8 SSW 1 3 1008.6 - 44.6 Recent precip. Mostly cloudy 10 - - - -
04/08:30am 24.7 S 1 3 1008.4 - 44.4 - Partly cloudy 6 - - - -
04/08:26am 24.6 S 1 3 1008.5 - 44.4 - Partly cloudy 8 - - - -
04/08:13am 24.6 WSW 1 3 1008.5 - 43.8 - Partly cloudy 4 - - - -
04/08:00am 24.6 CALM 0 1 1008.5 - 42.8 - Partly cloudy 10 - - - -
04/07:30am 24.4 NW 1 3 1008.2 - 42.6 - Partly cloudy 10 - - - -
04/07:00am 24.2 W 1 2 1007.7 - 42.2 - Partly cloudy 10 - - - -
04/06:31am 24.1 SW 2 4 1007.3 - 42.2 - Partly cloudy 10 - - - -
04/06:30am 24.0 WSW 2 4 1007.3 - 42.2 - Partly cloudy 10 - - - -
04/06:00am 24.4 CALM 0 3 1007.0 - 36.8 Rain Cloudy 1 - - - -
04/05:46am 24.5 SSE 3 7 1007.2 - 29.4 - Cloudy 4 - - - -
04/05:30am 24.5 SW 1 3 1006.6 - 27.2 - Cloudy 10 - - - -
04/05:00am 24.6 CALM 0 1 1006.3 - 27.2 - Partly cloudy 10 - - - -
04/04:30am 24.9 CALM 0 0 1006.1 - 27.2 - Partly cloudy 10 - - - -

Other Formats:

Comma delimited format used in spreadsheet applications
http://www.bom.gov.au/fwo/IDW60701/IDW60701.99206.axf

JavaScript Object Notation format (JSON) in row-major order
http://www.bom.gov.au/fwo/IDW60701/IDW60701.99206.json